sensor_id;sensor_type;location;lat;lon;timestamp;P1;durP1;ratioP1;P2;durP2;ratioP2
19223;SDS011;9746;47.180;9.776;2023-10-08T00:01:09;0.20;;;0.20;;
19223;SDS011;9746;47.180;9.776;2023-10-08T00:03:41;0.20;;;0.20;;
19223;SDS011;9746;47.180;9.776;2023-10-08T00:06:13;0.30;;;0.30;;
19223;SDS011;9746;47.180;9.776;2023-10-08T00:08:41;0.20;;;0.20;;
19223;SDS011;9746;47.180;9.776;2023-10-08T00:11:08;0.20;;;0.20;;
19223;SDS011;9746;47.180;9.776;2023-10-08T00:13:36;0.20;;;0.20;;
19223;SDS011;9746;47.180;9.776;2023-10-08T00:16:06;0.28;;;0.28;;
19223;SDS011;9746;47.180;9.776;2023-10-08T00:18:52;0.20;;;0.20;;
19223;SDS011;9746;47.180;9.776;2023-10-08T00:21:25;0.20;;;0.20;;
19223;SDS011;9746;47.180;9.776;2023-10-08T00:23:53;0.30;;;0.30;;
19223;SDS011;9746;47.180;9.776;2023-10-08T00:26:23;0.25;;;0.25;;
19223;SDS011;9746;47.180;9.776;2023-10-08T00:28:57;0.20;;;0.20;;
19223;SDS011;9746;47.180;9.776;2023-10-08T00:31:27;0.20;;;0.20;;
19223;SDS011;9746;47.180;9.776;2023-10-08T00:34:08;0.30;;;0.30;;
19223;SDS011;9746;47.180;9.776;2023-10-08T00:36:38;0.30;;;0.30;;
19223;SDS011;9746;47.180;9.776;2023-10-08T00:39:18;0.20;;;0.20;;
19223;SDS011;9746;47.180;9.776;2023-10-08T00:41:49;0.20;;;0.20;;
19223;SDS011;9746;47.180;9.776;2023-10-08T00:44:23;0.20;;;0.20;;
19223;SDS011;9746;47.180;9.776;2023-10-08T00:46:56;0.20;;;0.20;;
19223;SDS011;9746;47.180;9.776;2023-10-08T00:49:26;0.20;;;0.20;;
19223;SDS011;9746;47.180;9.776;2023-10-08T00:52:25;0.20;;;0.20;;
19223;SDS011;9746;47.180;9.776;2023-10-08T00:54:55;0.20;;;0.20;;
19223;SDS011;9746;47.180;9.776;2023-10-08T00:57:43;0.20;;;0.20;;
19223;SDS011;9746;47.180;9.776;2023-10-08T01:00:14;0.20;;;0.20;;
19223;SDS011;9746;47.180;9.776;2023-10-08T01:06:04;0.20;;;0.20;;
19223;SDS011;9746;47.180;9.776;2023-10-08T01:11:42;0.20;;;0.20;;
19223;SDS011;9746;47.180;9.776;2023-10-08T01:14:30;0.30;;;0.30;;
19223;SDS011;9746;47.180;9.776;2023-10-08T01:16:58;0.30;;;0.30;;
19223;SDS011;9746;47.180;9.776;2023-10-08T01:22:42;0.20;;;0.20;;
19223;SDS011;9746;47.180;9.776;2023-10-08T01:25:10;0.20;;;0.20;;
19223;SDS011;9746;47.180;9.776;2023-10-08T01:30:26;0.20;;;0.20;;
19223;SDS011;9746;47.180;9.776;2023-10-08T01:33:08;0.20;;;0.20;;
19223;SDS011;9746;47.180;9.776;2023-10-08T01:35:39;0.17;;;0.17;;
19223;SDS011;9746;47.180;9.776;2023-10-08T01:38:20;0.30;;;0.30;;
19223;SDS011;9746;47.180;9.776;2023-10-08T01:40:49;0.20;;;0.20;;
19223;SDS011;9746;47.180;9.776;2023-10-08T01:43:17;0.20;;;0.20;;
19223;SDS011;9746;47.180;9.776;2023-10-08T01:45:46;0.20;;;0.20;;
19223;SDS011;9746;47.180;9.776;2023-10-08T01:51:02;0.20;;;0.20;;
19223;SDS011;9746;47.180;9.776;2023-10-08T01:56:23;0.20;;;0.20;;
19223;SDS011;9746;47.180;9.776;2023-10-08T02:01:49;0.20;;;0.20;;
19223;SDS011;9746;47.180;9.776;2023-10-08T02:07:34;0.20;;;0.20;;
19223;SDS011;9746;47.180;9.776;2023-10-08T02:10:03;0.20;;;0.20;;
19223;SDS011;9746;47.180;9.776;2023-10-08T02:12:32;0.20;;;0.20;;
19223;SDS011;9746;47.180;9.776;2023-10-08T02:15:00;0.20;;;0.20;;
19223;SDS011;9746;47.180;9.776;2023-10-08T02:17:28;0.30;;;0.30;;
19223;SDS011;9746;47.180;9.776;2023-10-08T02:20:12;0.30;;;0.30;;
19223;SDS011;9746;47.180;9.776;2023-10-08T02:22:56;0.20;;;0.20;;
19223;SDS011;9746;47.180;9.776;2023-10-08T02:25:26;0.20;;;0.20;;
19223;SDS011;9746;47.180;9.776;2023-10-08T02:31:05;0.20;;;0.20;;
19223;SDS011;9746;47.180;9.776;2023-10-08T02:33:48;0.30;;;0.30;;
19223;SDS011;9746;47.180;9.776;2023-10-08T02:36:15;0.30;;;0.30;;
19223;SDS011;9746;47.180;9.776;2023-10-08T02:38:46;0.20;;;0.20;;
19223;SDS011;9746;47.180;9.776;2023-10-08T02:41:17;0.20;;;0.20;;
19223;SDS011;9746;47.180;9.776;2023-10-08T02:43:45;0.20;;;0.20;;
19223;SDS011;9746;47.180;9.776;2023-10-08T02:46:14;0.30;;;0.30;;
19223;SDS011;9746;47.180;9.776;2023-10-08T02:51:38;0.20;;;0.20;;
19223;SDS011;9746;47.180;9.776;2023-10-08T02:54:18;0.20;;;0.20;;
19223;SDS011;9746;47.180;9.776;2023-10-08T02:56:50;0.27;;;0.27;;
19223;SDS011;9746;47.180;9.776;2023-10-08T03:02:19;0.30;;;0.30;;
19223;SDS011;9746;47.180;9.776;2023-10-08T03:08:08;0.20;;;0.20;;
19223;SDS011;9746;47.180;9.776;2023-10-08T03:10:37;0.23;;;0.23;;
19223;SDS011;9746;47.180;9.776;2023-10-08T03:16:17;0.20;;;0.20;;
19223;SDS011;9746;47.180;9.776;2023-10-08T03:21:43;0.20;;;0.20;;
19223;SDS011;9746;47.180;9.776;2023-10-08T03:24:23;0.20;;;0.20;;
19223;SDS011;9746;47.180;9.776;2023-10-08T03:27:02;0.20;;;0.20;;
19223;SDS011;9746;47.180;9.776;2023-10-08T03:32:50;0.20;;;0.20;;
19223;SDS011;9746;47.180;9.776;2023-10-08T03:38:08;0.20;;;0.20;;
19223;SDS011;9746;47.180;9.776;2023-10-08T03:40:46;0.20;;;0.20;;
19223;SDS011;9746;47.180;9.776;2023-10-08T03:46:12;0.20;;;0.20;;
19223;SDS011;9746;47.180;9.776;2023-10-08T03:52:04;0.20;;;0.20;;
19223;SDS011;9746;47.180;9.776;2023-10-08T03:54:44;0.20;;;0.20;;
19223;SDS011;9746;47.180;9.776;2023-10-08T03:57:28;0.20;;;0.20;;
19223;SDS011;9746;47.180;9.776;2023-10-08T04:06:55;0.20;;;0.20;;
19223;SDS011;9746;47.180;9.776;2023-10-08T04:13:14;0.20;;;0.20;;
19223;SDS011;9746;47.180;9.776;2023-10-08T04:19:03;0.20;;;0.20;;
19223;SDS011;9746;47.180;9.776;2023-10-08T04:21:30;0.20;;;0.20;;
19223;SDS011;9746;47.180;9.776;2023-10-08T04:26:46;0.20;;;0.20;;
19223;SDS011;9746;47.180;9.776;2023-10-08T04:32:08;0.20;;;0.20;;
19223;SDS011;9746;47.180;9.776;2023-10-08T04:37:23;0.20;;;0.20;;
19223;SDS011;9746;47.180;9.776;2023-10-08T04:40:10;0.20;;;0.20;;
19223;SDS011;9746;47.180;9.776;2023-10-08T04:42:43;0.22;;;0.22;;
19223;SDS011;9746;47.180;9.776;2023-10-08T04:48:18;0.25;;;0.25;;
19223;SDS011;9746;47.180;9.776;2023-10-08T04:56:55;0.30;;;0.30;;
19223;SDS011;9746;47.180;9.776;2023-10-08T04:59:39;0.20;;;0.20;;
19223;SDS011;9746;47.180;9.776;2023-10-08T05:02:12;0.20;;;0.20;;
19223;SDS011;9746;47.180;9.776;2023-10-08T05:07:47;0.20;;;0.20;;
19223;SDS011;9746;47.180;9.776;2023-10-08T05:14:10;0.20;;;0.20;;
19223;SDS011;9746;47.180;9.776;2023-10-08T05:16:54;0.20;;;0.20;;
19223;SDS011;9746;47.180;9.776;2023-10-08T05:22:45;0.20;;;0.20;;
19223;SDS011;9746;47.180;9.776;2023-10-08T05:31:49;0.20;;;0.20;;
19223;SDS011;9746;47.180;9.776;2023-10-08T05:37:45;0.20;;;0.20;;
19223;SDS011;9746;47.180;9.776;2023-10-08T05:43:24;0.20;;;0.20;;
19223;SDS011;9746;47.180;9.776;2023-10-08T05:49:20;0.20;;;0.20;;
19223;SDS011;9746;47.180;9.776;2023-10-08T05:52:19;0.20;;;0.20;;
19223;SDS011;9746;47.180;9.776;2023-10-08T05:55:27;0.23;;;0.23;;
19223;SDS011;9746;47.180;9.776;2023-10-08T05:58:01;0.20;;;0.20;;
19223;SDS011;9746;47.180;9.776;2023-10-08T06:03:34;0.30;;;0.30;;
19223;SDS011;9746;47.180;9.776;2023-10-08T06:06:12;0.27;;;0.27;;
19223;SDS011;9746;47.180;9.776;2023-10-08T06:08:51;0.20;;;0.20;;
19223;SDS011;9746;47.180;9.776;2023-10-08T06:18:33;0.30;;;0.30;;
19223;SDS011;9746;47.180;9.776;2023-10-08T06:24:22;0.20;;;0.20;;
19223;SDS011;9746;47.180;9.776;2023-10-08T06:26:51;0.20;;;0.20;;
19223;SDS011;9746;47.180;9.776;2023-10-08T06:29:20;0.20;;;0.20;;
19223;SDS011;9746;47.180;9.776;2023-10-08T06:31:55;0.20;;;0.20;;
19223;SDS011;9746;47.180;9.776;2023-10-08T06:34:30;0.20;;;0.20;;
19223;SDS011;9746;47.180;9.776;2023-10-08T06:36:58;0.20;;;0.20;;
19223;SDS011;9746;47.180;9.776;2023-10-08T06:42:13;0.30;;;0.30;;
19223;SDS011;9746;47.180;9.776;2023-10-08T06:47:40;0.20;;;0.20;;
19223;SDS011;9746;47.180;9.776;2023-10-08T06:52:40;0.20;;;0.20;;
19223;SDS011;9746;47.180;9.776;2023-10-08T06:55:09;0.20;;;0.20;;
19223;SDS011;9746;47.180;9.776;2023-10-08T06:57:38;0.20;;;0.20;;
19223;SDS011;9746;47.180;9.776;2023-10-08T07:03:01;0.20;;;0.20;;
19223;SDS011;9746;47.180;9.776;2023-10-08T07:05:40;0.20;;;0.20;;
19223;SDS011;9746;47.180;9.776;2023-10-08T07:08:10;0.20;;;0.20;;
19223;SDS011;9746;47.180;9.776;2023-10-08T07:14:02;0.20;;;0.20;;
19223;SDS011;9746;47.180;9.776;2023-10-08T07:16:30;0.20;;;0.20;;
19223;SDS011;9746;47.180;9.776;2023-10-08T07:18:58;0.20;;;0.20;;
19223;SDS011;9746;47.180;9.776;2023-10-08T07:24:54;0.20;;;0.20;;
19223;SDS011;9746;47.180;9.776;2023-10-08T07:27:22;0.20;;;0.20;;
19223;SDS011;9746;47.180;9.776;2023-10-08T07:32:52;0.20;;;0.20;;
19223;SDS011;9746;47.180;9.776;2023-10-08T07:38:04;0.20;;;0.20;;
19223;SDS011;9746;47.180;9.776;2023-10-08T07:43:31;0.20;;;0.20;;
19223;SDS011;9746;47.180;9.776;2023-10-08T07:45:58;0.20;;;0.20;;
19223;SDS011;9746;47.180;9.776;2023-10-08T07:48:27;0.20;;;0.20;;
19223;SDS011;9746;47.180;9.776;2023-10-08T07:50:58;0.20;;;0.20;;
19223;SDS011;9746;47.180;9.776;2023-10-08T07:53:25;0.20;;;0.20;;
19223;SDS011;9746;47.180;9.776;2023-10-08T07:56:06;0.20;;;0.20;;
19223;SDS011;9746;47.180;9.776;2023-10-08T07:58:34;0.20;;;0.20;;
19223;SDS011;9746;47.180;9.776;2023-10-08T08:01:03;0.20;;;0.20;;
19223;SDS011;9746;47.180;9.776;2023-10-08T08:03:31;0.15;;;0.15;;
19223;SDS011;9746;47.180;9.776;2023-10-08T08:06:17;0.10;;;0.10;;
19223;SDS011;9746;47.180;9.776;2023-10-08T08:08:44;0.10;;;0.10;;
19223;SDS011;9746;47.180;9.776;2023-10-08T08:13:51;0.13;;;0.13;;
19223;SDS011;9746;47.180;9.776;2023-10-08T08:16:19;0.10;;;0.10;;
19223;SDS011;9746;47.180;9.776;2023-10-08T08:18:47;0.10;;;0.10;;
19223;SDS011;9746;47.180;9.776;2023-10-08T08:21:24;0.10;;;0.10;;
19223;SDS011;9746;47.180;9.776;2023-10-08T08:23:55;0.10;;;0.10;;
19223;SDS011;9746;47.180;9.776;2023-10-08T08:29:50;0.10;;;0.10;;
19223;SDS011;9746;47.180;9.776;2023-10-08T08:35:58;0.00;;;0.00;;
19223;SDS011;9746;47.180;9.776;2023-10-08T08:38:27;0.10;;;0.10;;
19223;SDS011;9746;47.180;9.776;2023-10-08T08:41:09;0.10;;;0.10;;
19223;SDS011;9746;47.180;9.776;2023-10-08T08:43:38;0.10;;;0.10;;
19223;SDS011;9746;47.180;9.776;2023-10-08T08:49:34;0.10;;;0.10;;
19223;SDS011;9746;47.180;9.776;2023-10-08T08:52:20;0.10;;;0.10;;
19223;SDS011;9746;47.180;9.776;2023-10-08T08:54:48;0.10;;;0.10;;
19223;SDS011;9746;47.180;9.776;2023-10-08T09:00:20;0.10;;;0.10;;
19223;SDS011;9746;47.180;9.776;2023-10-08T09:02:53;0.10;;;0.10;;
19223;SDS011;9746;47.180;9.776;2023-10-08T09:05:22;0.10;;;0.10;;
19223;SDS011;9746;47.180;9.776;2023-10-08T09:08:00;0.00;;;0.00;;
19223;SDS011;9746;47.180;9.776;2023-10-08T09:13:52;0.10;;;0.10;;
19223;SDS011;9746;47.180;9.776;2023-10-08T09:16:20;0.10;;;0.10;;
19223;SDS011;9746;47.180;9.776;2023-10-08T09:18:48;0.10;;;0.10;;
19223;SDS011;9746;47.180;9.776;2023-10-08T09:24:47;0.10;;;0.10;;
19223;SDS011;9746;47.180;9.776;2023-10-08T09:30:28;0.10;;;0.10;;
19223;SDS011;9746;47.180;9.776;2023-10-08T09:36:18;0.10;;;0.10;;
19223;SDS011;9746;47.180;9.776;2023-10-08T09:38:46;0.03;;;0.03;;
19223;SDS011;9746;47.180;9.776;2023-10-08T09:44:38;0.10;;;0.10;;
19223;SDS011;9746;47.180;9.776;2023-10-08T09:50:30;0.00;;;0.00;;
19223;SDS011;9746;47.180;9.776;2023-10-08T09:59:47;0.00;;;0.00;;
19223;SDS011;9746;47.180;9.776;2023-10-08T10:05:37;0.00;;;0.00;;
19223;SDS011;9746;47.180;9.776;2023-10-08T10:11:28;0.00;;;0.00;;
19223;SDS011;9746;47.180;9.776;2023-10-08T10:13:57;0.00;;;0.00;;
19223;SDS011;9746;47.180;9.776;2023-10-08T10:19:55;0.00;;;0.00;;
19223;SDS011;9746;47.180;9.776;2023-10-08T10:25:46;0.03;;;0.03;;
19223;SDS011;9746;47.180;9.776;2023-10-08T10:31:35;0.00;;;0.00;;
19223;SDS011;9746;47.180;9.776;2023-10-08T10:34:04;0.00;;;0.00;;
19223;SDS011;9746;47.180;9.776;2023-10-08T10:46:21;0.00;;;0.00;;
19223;SDS011;9746;47.180;9.776;2023-10-08T10:48:56;0.00;;;0.00;;
19223;SDS011;9746;47.180;9.776;2023-10-08T10:51:45;0.00;;;0.00;;
19223;SDS011;9746;47.180;9.776;2023-10-08T10:54:13;0.10;;;0.10;;
19223;SDS011;9746;47.180;9.776;2023-10-08T10:59:32;0.10;;;0.10;;
19223;SDS011;9746;47.180;9.776;2023-10-08T11:05:08;0.10;;;0.10;;
19223;SDS011;9746;47.180;9.776;2023-10-08T11:10:41;0.00;;;0.00;;
19223;SDS011;9746;47.180;9.776;2023-10-08T11:13:18;0.10;;;0.10;;
19223;SDS011;9746;47.180;9.776;2023-10-08T11:15:50;0.10;;;0.10;;
19223;SDS011;9746;47.180;9.776;2023-10-08T11:18:23;0.00;;;0.00;;
19223;SDS011;9746;47.180;9.776;2023-10-08T11:21:04;0.00;;;0.00;;
19223;SDS011;9746;47.180;9.776;2023-10-08T11:23:41;0.00;;;0.00;;
19223;SDS011;9746;47.180;9.776;2023-10-08T11:26:12;0.00;;;0.00;;
19223;SDS011;9746;47.180;9.776;2023-10-08T11:28:57;0.00;;;0.00;;
19223;SDS011;9746;47.180;9.776;2023-10-08T11:31:27;0.00;;;0.00;;
19223;SDS011;9746;47.180;9.776;2023-10-08T11:33:59;0.00;;;0.00;;
19223;SDS011;9746;47.180;9.776;2023-10-08T11:39:09;0.00;;;0.00;;
19223;SDS011;9746;47.180;9.776;2023-10-08T11:41:58;0.00;;;0.00;;
19223;SDS011;9746;47.180;9.776;2023-10-08T11:44:30;0.00;;;0.00;;
19223;SDS011;9746;47.180;9.776;2023-10-08T11:49:46;0.00;;;0.00;;
19223;SDS011;9746;47.180;9.776;2023-10-08T11:52:16;0.00;;;0.00;;
19223;SDS011;9746;47.180;9.776;2023-10-08T11:54:46;0.00;;;0.00;;
19223;SDS011;9746;47.180;9.776;2023-10-08T12:00:11;0.00;;;0.00;;
19223;SDS011;9746;47.180;9.776;2023-10-08T12:05:19;0.00;;;0.00;;
19223;SDS011;9746;47.180;9.776;2023-10-08T12:08:06;0.00;;;0.00;;
19223;SDS011;9746;47.180;9.776;2023-10-08T12:10:33;0.00;;;0.00;;
19223;SDS011;9746;47.180;9.776;2023-10-08T12:13:00;0.00;;;0.00;;
19223;SDS011;9746;47.180;9.776;2023-10-08T12:15:31;0.00;;;0.00;;
19223;SDS011;9746;47.180;9.776;2023-10-08T12:18:17;0.00;;;0.00;;
19223;SDS011;9746;47.180;9.776;2023-10-08T12:20:50;0.00;;;0.00;;
19223;SDS011;9746;47.180;9.776;2023-10-08T12:23:30;0.00;;;0.00;;
19223;SDS011;9746;47.180;9.776;2023-10-08T12:25:59;0.00;;;0.00;;
19223;SDS011;9746;47.180;9.776;2023-10-08T12:28:34;0.00;;;0.00;;
19223;SDS011;9746;47.180;9.776;2023-10-08T12:31:02;0.00;;;0.00;;
19223;SDS011;9746;47.180;9.776;2023-10-08T12:33:33;0.00;;;0.00;;
19223;SDS011;9746;47.180;9.776;2023-10-08T12:36:03;0.00;;;0.00;;
19223;SDS011;9746;47.180;9.776;2023-10-08T12:41:13;0.00;;;0.00;;
19223;SDS011;9746;47.180;9.776;2023-10-08T12:46:34;0.00;;;0.00;;
19223;SDS011;9746;47.180;9.776;2023-10-08T12:49:08;0.00;;;0.00;;
19223;SDS011;9746;47.180;9.776;2023-10-08T12:51:36;0.00;;;0.00;;
19223;SDS011;9746;47.180;9.776;2023-10-08T12:54:24;0.10;;;0.10;;
19223;SDS011;9746;47.180;9.776;2023-10-08T12:56:54;0.00;;;0.00;;
19223;SDS011;9746;47.180;9.776;2023-10-08T12:59:23;0.00;;;0.00;;
19223;SDS011;9746;47.180;9.776;2023-10-08T13:01:52;0.00;;;0.00;;
19223;SDS011;9746;47.180;9.776;2023-10-08T13:04:23;0.00;;;0.00;;
19223;SDS011;9746;47.180;9.776;2023-10-08T13:06:53;0.00;;;0.00;;
19223;SDS011;9746;47.180;9.776;2023-10-08T13:09:40;0.10;;;0.10;;
19223;SDS011;9746;47.180;9.776;2023-10-08T13:12:10;0.00;;;0.00;;
19223;SDS011;9746;47.180;9.776;2023-10-08T13:14:40;0.00;;;0.00;;
19223;SDS011;9746;47.180;9.776;2023-10-08T13:17:10;0.10;;;0.10;;
19223;SDS011;9746;47.180;9.776;2023-10-08T13:19:41;0.00;;;0.00;;
19223;SDS011;9746;47.180;9.776;2023-10-08T13:22:11;0.00;;;0.00;;
19223;SDS011;9746;47.180;9.776;2023-10-08T13:24:44;0.10;;;0.10;;
19223;SDS011;9746;47.180;9.776;2023-10-08T13:27:13;0.00;;;0.00;;
19223;SDS011;9746;47.180;9.776;2023-10-08T13:29:41;0.00;;;0.00;;
19223;SDS011;9746;47.180;9.776;2023-10-08T13:32:09;0.10;;;0.10;;
19223;SDS011;9746;47.180;9.776;2023-10-08T13:34:43;0.10;;;0.10;;
19223;SDS011;9746;47.180;9.776;2023-10-08T13:37:11;0.08;;;0.08;;
19223;SDS011;9746;47.180;9.776;2023-10-08T13:39:42;0.10;;;0.10;;
19223;SDS011;9746;47.180;9.776;2023-10-08T13:42:11;0.00;;;0.00;;
19223;SDS011;9746;47.180;9.776;2023-10-08T13:44:46;0.10;;;0.10;;
19223;SDS011;9746;47.180;9.776;2023-10-08T13:47:20;0.00;;;0.00;;
19223;SDS011;9746;47.180;9.776;2023-10-08T13:49:52;0.00;;;0.00;;
19223;SDS011;9746;47.180;9.776;2023-10-08T13:52:20;0.00;;;0.00;;
19223;SDS011;9746;47.180;9.776;2023-10-08T13:54:51;0.00;;;0.00;;
19223;SDS011;9746;47.180;9.776;2023-10-08T13:57:19;0.03;;;0.00;;
19223;SDS011;9746;47.180;9.776;2023-10-08T13:59:47;0.00;;;0.00;;
19223;SDS011;9746;47.180;9.776;2023-10-08T14:02:15;0.00;;;0.00;;
19223;SDS011;9746;47.180;9.776;2023-10-08T14:05:05;0.00;;;0.00;;
19223;SDS011;9746;47.180;9.776;2023-10-08T14:10:18;0.00;;;0.00;;
19223;SDS011;9746;47.180;9.776;2023-10-08T14:16:07;0.00;;;0.00;;
19223;SDS011;9746;47.180;9.776;2023-10-08T14:22:07;0.00;;;0.00;;
19223;SDS011;9746;47.180;9.776;2023-10-08T14:28:23;0.05;;;0.05;;
19223;SDS011;9746;47.180;9.776;2023-10-08T14:31:06;0.00;;;0.00;;
19223;SDS011;9746;47.180;9.776;2023-10-08T14:36:55;0.00;;;0.00;;
19223;SDS011;9746;47.180;9.776;2023-10-08T14:43:02;0.00;;;0.00;;
19223;SDS011;9746;47.180;9.776;2023-10-08T14:45:30;0.00;;;0.00;;
19223;SDS011;9746;47.180;9.776;2023-10-08T14:48:01;0.00;;;0.00;;
19223;SDS011;9746;47.180;9.776;2023-10-08T14:50:31;0.10;;;0.10;;
19223;SDS011;9746;47.180;9.776;2023-10-08T14:56:20;0.00;;;0.00;;
19223;SDS011;9746;47.180;9.776;2023-10-08T15:02:12;0.10;;;0.10;;
19223;SDS011;9746;47.180;9.776;2023-10-08T15:08:01;0.00;;;0.00;;
19223;SDS011;9746;47.180;9.776;2023-10-08T15:10:35;0.00;;;0.00;;
19223;SDS011;9746;47.180;9.776;2023-10-08T15:13:02;0.00;;;0.00;;
19223;SDS011;9746;47.180;9.776;2023-10-08T15:15:31;0.08;;;0.08;;
19223;SDS011;9746;47.180;9.776;2023-10-08T15:18:01;0.03;;;0.03;;
19223;SDS011;9746;47.180;9.776;2023-10-08T15:20:29;0.00;;;0.00;;
19223;SDS011;9746;47.180;9.776;2023-10-08T15:22:57;0.00;;;0.00;;
19223;SDS011;9746;47.180;9.776;2023-10-08T15:25:25;0.10;;;0.10;;
19223;SDS011;9746;47.180;9.776;2023-10-08T15:27:52;0.10;;;0.10;;
19223;SDS011;9746;47.180;9.776;2023-10-08T15:33:43;0.10;;;0.10;;
19223;SDS011;9746;47.180;9.776;2023-10-08T15:36:10;0.10;;;0.10;;
19223;SDS011;9746;47.180;9.776;2023-10-08T15:42:00;0.10;;;0.10;;
19223;SDS011;9746;47.180;9.776;2023-10-08T15:47:49;0.10;;;0.10;;
19223;SDS011;9746;47.180;9.776;2023-10-08T15:53:40;0.10;;;0.10;;
19223;SDS011;9746;47.180;9.776;2023-10-08T15:56:07;0.10;;;0.10;;
19223;SDS011;9746;47.180;9.776;2023-10-08T16:01:15;0.10;;;0.10;;
19223;SDS011;9746;47.180;9.776;2023-10-08T16:04:00;0.10;;;0.10;;
19223;SDS011;9746;47.180;9.776;2023-10-08T16:06:27;0.10;;;0.10;;
19223;SDS011;9746;47.180;9.776;2023-10-08T16:09:00;0.10;;;0.10;;
19223;SDS011;9746;47.180;9.776;2023-10-08T16:11:29;0.10;;;0.10;;
19223;SDS011;9746;47.180;9.776;2023-10-08T16:14:10;0.10;;;0.10;;
19223;SDS011;9746;47.180;9.776;2023-10-08T16:16:37;0.10;;;0.10;;
19223;SDS011;9746;47.180;9.776;2023-10-08T16:19:10;0.10;;;0.10;;
19223;SDS011;9746;47.180;9.776;2023-10-08T16:21:38;0.10;;;0.10;;
19223;SDS011;9746;47.180;9.776;2023-10-08T16:26:44;0.10;;;0.10;;
19223;SDS011;9746;47.180;9.776;2023-10-08T16:32:03;0.10;;;0.10;;
19223;SDS011;9746;47.180;9.776;2023-10-08T16:34:32;0.10;;;0.10;;
19223;SDS011;9746;47.180;9.776;2023-10-08T16:36:59;0.10;;;0.10;;
19223;SDS011;9746;47.180;9.776;2023-10-08T16:39:41;0.10;;;0.10;;
19223;SDS011;9746;47.180;9.776;2023-10-08T16:42:08;0.10;;;0.10;;
19223;SDS011;9746;47.180;9.776;2023-10-08T16:44:38;0.10;;;0.10;;
19223;SDS011;9746;47.180;9.776;2023-10-08T16:47:05;0.10;;;0.10;;
19223;SDS011;9746;47.180;9.776;2023-10-08T16:52:55;0.10;;;0.10;;
19223;SDS011;9746;47.180;9.776;2023-10-08T16:58:31;0.10;;;0.10;;
19223;SDS011;9746;47.180;9.776;2023-10-08T17:01:05;0.10;;;0.10;;
19223;SDS011;9746;47.180;9.776;2023-10-08T17:03:34;0.10;;;0.10;;
19223;SDS011;9746;47.180;9.776;2023-10-08T17:06:02;0.10;;;0.10;;
19223;SDS011;9746;47.180;9.776;2023-10-08T17:08:33;0.10;;;0.10;;
19223;SDS011;9746;47.180;9.776;2023-10-08T17:14:19;0.20;;;0.20;;
19223;SDS011;9746;47.180;9.776;2023-10-08T17:16:46;0.17;;;0.17;;
19223;SDS011;9746;47.180;9.776;2023-10-08T17:21:52;0.10;;;0.10;;
19223;SDS011;9746;47.180;9.776;2023-10-08T17:24:32;0.15;;;0.15;;
19223;SDS011;9746;47.180;9.776;2023-10-08T17:27:00;0.10;;;0.10;;
19223;SDS011;9746;47.180;9.776;2023-10-08T17:29:33;0.10;;;0.10;;
19223;SDS011;9746;47.180;9.776;2023-10-08T17:32:01;0.10;;;0.10;;
19223;SDS011;9746;47.180;9.776;2023-10-08T17:34:29;0.10;;;0.10;;
19223;SDS011;9746;47.180;9.776;2023-10-08T17:36:57;0.10;;;0.10;;
19223;SDS011;9746;47.180;9.776;2023-10-08T17:39:26;0.10;;;0.10;;
19223;SDS011;9746;47.180;9.776;2023-10-08T17:42:03;0.10;;;0.10;;
19223;SDS011;9746;47.180;9.776;2023-10-08T17:47:05;0.15;;;0.15;;
19223;SDS011;9746;47.180;9.776;2023-10-08T17:49:35;0.10;;;0.10;;
19223;SDS011;9746;47.180;9.776;2023-10-08T17:52:03;0.10;;;0.10;;
19223;SDS011;9746;47.180;9.776;2023-10-08T17:57:02;0.10;;;0.10;;
19223;SDS011;9746;47.180;9.776;2023-10-08T17:59:40;0.10;;;0.10;;
19223;SDS011;9746;47.180;9.776;2023-10-08T18:02:08;0.10;;;0.10;;
19223;SDS011;9746;47.180;9.776;2023-10-08T18:04:36;0.10;;;0.10;;
19223;SDS011;9746;47.180;9.776;2023-10-08T18:07:04;0.10;;;0.10;;
19223;SDS011;9746;47.180;9.776;2023-10-08T18:09:33;0.10;;;0.10;;
19223;SDS011;9746;47.180;9.776;2023-10-08T18:12:01;0.10;;;0.10;;
19223;SDS011;9746;47.180;9.776;2023-10-08T18:14:29;0.10;;;0.10;;
19223;SDS011;9746;47.180;9.776;2023-10-08T18:16:58;0.10;;;0.10;;
19223;SDS011;9746;47.180;9.776;2023-10-08T18:22:18;0.10;;;0.10;;
19223;SDS011;9746;47.180;9.776;2023-10-08T18:24:50;0.10;;;0.10;;
19223;SDS011;9746;47.180;9.776;2023-10-08T18:27:19;0.10;;;0.10;;
19223;SDS011;9746;47.180;9.776;2023-10-08T18:29:46;0.10;;;0.10;;
19223;SDS011;9746;47.180;9.776;2023-10-08T18:32:15;0.10;;;0.10;;
19223;SDS011;9746;47.180;9.776;2023-10-08T18:37:39;0.10;;;0.10;;
19223;SDS011;9746;47.180;9.776;2023-10-08T18:40:08;0.10;;;0.10;;
19223;SDS011;9746;47.180;9.776;2023-10-08T18:42:39;0.10;;;0.10;;
19223;SDS011;9746;47.180;9.776;2023-10-08T18:45:13;0.20;;;0.20;;
19223;SDS011;9746;47.180;9.776;2023-10-08T18:47:43;0.10;;;0.10;;
19223;SDS011;9746;47.180;9.776;2023-10-08T18:50:17;0.10;;;0.10;;
19223;SDS011;9746;47.180;9.776;2023-10-08T18:52:47;0.10;;;0.10;;
19223;SDS011;9746;47.180;9.776;2023-10-08T18:55:22;0.10;;;0.10;;
19223;SDS011;9746;47.180;9.776;2023-10-08T18:57:50;0.10;;;0.10;;
19223;SDS011;9746;47.180;9.776;2023-10-08T19:02:59;0.10;;;0.10;;
19223;SDS011;9746;47.180;9.776;2023-10-08T19:08:06;0.10;;;0.10;;
19223;SDS011;9746;47.180;9.776;2023-10-08T19:10:41;0.10;;;0.10;;
19223;SDS011;9746;47.180;9.776;2023-10-08T19:13:08;0.10;;;0.10;;
19223;SDS011;9746;47.180;9.776;2023-10-08T19:15:36;0.10;;;0.10;;
19223;SDS011;9746;47.180;9.776;2023-10-08T19:18:06;0.10;;;0.10;;
19223;SDS011;9746;47.180;9.776;2023-10-08T19:20:47;0.10;;;0.10;;
19223;SDS011;9746;47.180;9.776;2023-10-08T19:23:15;0.10;;;0.10;;
19223;SDS011;9746;47.180;9.776;2023-10-08T19:28:43;0.10;;;0.10;;
19223;SDS011;9746;47.180;9.776;2023-10-08T19:31:22;0.10;;;0.10;;
19223;SDS011;9746;47.180;9.776;2023-10-08T19:33:52;0.10;;;0.10;;
19223;SDS011;9746;47.180;9.776;2023-10-08T19:36:21;0.10;;;0.10;;
19223;SDS011;9746;47.180;9.776;2023-10-08T19:38:49;0.10;;;0.10;;
19223;SDS011;9746;47.180;9.776;2023-10-08T19:41:18;0.20;;;0.20;;
19223;SDS011;9746;47.180;9.776;2023-10-08T19:43:46;0.10;;;0.10;;
19223;SDS011;9746;47.180;9.776;2023-10-08T19:46:24;0.10;;;0.10;;
19223;SDS011;9746;47.180;9.776;2023-10-08T19:48:54;0.10;;;0.10;;
19223;SDS011;9746;47.180;9.776;2023-10-08T19:51:36;0.10;;;0.10;;
19223;SDS011;9746;47.180;9.776;2023-10-08T19:54:05;0.20;;;0.20;;
19223;SDS011;9746;47.180;9.776;2023-10-08T19:56:32;0.10;;;0.10;;
19223;SDS011;9746;47.180;9.776;2023-10-08T19:58:59;0.10;;;0.10;;
19223;SDS011;9746;47.180;9.776;2023-10-08T20:01:39;0.10;;;0.10;;
19223;SDS011;9746;47.180;9.776;2023-10-08T20:04:08;0.20;;;0.20;;
19223;SDS011;9746;47.180;9.776;2023-10-08T20:06:36;0.10;;;0.10;;
19223;SDS011;9746;47.180;9.776;2023-10-08T20:09:03;0.10;;;0.10;;
19223;SDS011;9746;47.180;9.776;2023-10-08T20:11:37;0.15;;;0.15;;
19223;SDS011;9746;47.180;9.776;2023-10-08T20:14:05;0.10;;;0.10;;
19223;SDS011;9746;47.180;9.776;2023-10-08T20:16:33;0.10;;;0.10;;
19223;SDS011;9746;47.180;9.776;2023-10-08T20:19:01;0.20;;;0.20;;
19223;SDS011;9746;47.180;9.776;2023-10-08T20:21:32;0.10;;;0.10;;
19223;SDS011;9746;47.180;9.776;2023-10-08T20:23:59;0.10;;;0.10;;
19223;SDS011;9746;47.180;9.776;2023-10-08T20:26:33;0.10;;;0.10;;
19223;SDS011;9746;47.180;9.776;2023-10-08T20:29:07;0.10;;;0.10;;
19223;SDS011;9746;47.180;9.776;2023-10-08T20:31:42;0.20;;;0.20;;
19223;SDS011;9746;47.180;9.776;2023-10-08T20:34:10;0.20;;;0.20;;
19223;SDS011;9746;47.180;9.776;2023-10-08T20:36:45;0.10;;;0.10;;
19223;SDS011;9746;47.180;9.776;2023-10-08T20:39:12;0.10;;;0.10;;
19223;SDS011;9746;47.180;9.776;2023-10-08T20:41:51;0.17;;;0.17;;
19223;SDS011;9746;47.180;9.776;2023-10-08T20:44:20;0.10;;;0.10;;
19223;SDS011;9746;47.180;9.776;2023-10-08T20:49:21;0.20;;;0.20;;
19223;SDS011;9746;47.180;9.776;2023-10-08T20:51:51;0.20;;;0.20;;
19223;SDS011;9746;47.180;9.776;2023-10-08T20:54:19;0.20;;;0.20;;
19223;SDS011;9746;47.180;9.776;2023-10-08T20:56:47;0.20;;;0.20;;
19223;SDS011;9746;47.180;9.776;2023-10-08T20:59:15;0.10;;;0.10;;
19223;SDS011;9746;47.180;9.776;2023-10-08T21:04:58;0.10;;;0.10;;